sensor_id;sensor_type;location;lat;lon;timestamp;temperature;humidity
16955;DHT22;8594;52.052;8.354;2023-03-05T00:00:09;5.60;99.90
16955;DHT22;8594;52.052;8.354;2023-03-05T00:02:38;5.80;99.90
16955;DHT22;8594;52.052;8.354;2023-03-05T00:05:06;5.70;99.90
16955;DHT22;8594;52.052;8.354;2023-03-05T00:07:35;5.60;99.90
16955;DHT22;8594;52.052;8.354;2023-03-05T00:10:04;5.70;99.90
16955;DHT22;8594;52.052;8.354;2023-03-05T00:12:31;5.80;99.90
16955;DHT22;8594;52.052;8.354;2023-03-05T00:14:58;5.80;99.90
16955;DHT22;8594;52.052;8.354;2023-03-05T00:17:25;5.70;99.90
16955;DHT22;8594;52.052;8.354;2023-03-05T00:19:52;5.80;99.90
16955;DHT22;8594;52.052;8.354;2023-03-05T00:22:19;5.90;99.90
16955;DHT22;8594;52.052;8.354;2023-03-05T00:24:49;5.90;99.90
16955;DHT22;8594;52.052;8.354;2023-03-05T00:27:16;5.70;99.90
16955;DHT22;8594;52.052;8.354;2023-03-05T00:29:43;5.80;99.90
16955;DHT22;8594;52.052;8.354;2023-03-05T00:32:10;5.60;99.90
16955;DHT22;8594;52.052;8.354;2023-03-05T00:34:36;5.70;99.90
16955;DHT22;8594;52.052;8.354;2023-03-05T00:37:04;5.60;99.90
16955;DHT22;8594;52.052;8.354;2023-03-05T00:39:32;5.70;99.90
16955;DHT22;8594;52.052;8.354;2023-03-05T00:42:00;5.60;99.90
16955;DHT22;8594;52.052;8.354;2023-03-05T00:44:27;5.60;99.90
16955;DHT22;8594;52.052;8.354;2023-03-05T00:46:54;5.40;99.90
16955;DHT22;8594;52.052;8.354;2023-03-05T00:49:21;5.20;99.90
16955;DHT22;8594;52.052;8.354;2023-03-05T00:51:47;5.40;99.90
16955;DHT22;8594;52.052;8.354;2023-03-05T00:54:14;5.60;99.90
16955;DHT22;8594;52.052;8.354;2023-03-05T00:56:41;5.70;99.90
16955;DHT22;8594;52.052;8.354;2023-03-05T00:59:10;5.60;99.90
16955;DHT22;8594;52.052;8.354;2023-03-05T01:01:37;5.50;99.90
16955;DHT22;8594;52.052;8.354;2023-03-05T01:04:04;5.60;99.90
16955;DHT22;8594;52.052;8.354;2023-03-05T01:06:31;5.70;99.90
16955;DHT22;8594;52.052;8.354;2023-03-05T01:08:58;5.70;99.90
16955;DHT22;8594;52.052;8.354;2023-03-05T01:11:25;5.70;99.90
16955;DHT22;8594;52.052;8.354;2023-03-05T01:13:52;5.70;99.90
16955;DHT22;8594;52.052;8.354;2023-03-05T01:16:20;5.50;99.90
16955;DHT22;8594;52.052;8.354;2023-03-05T01:18:47;5.30;99.90
16955;DHT22;8594;52.052;8.354;2023-03-05T01:21:13;5.40;99.90
16955;DHT22;8594;52.052;8.354;2023-03-05T01:23:40;5.40;99.90
16955;DHT22;8594;52.052;8.354;2023-03-05T01:26:07;5.60;99.90
16955;DHT22;8594;52.052;8.354;2023-03-05T01:28:34;5.50;99.90
16955;DHT22;8594;52.052;8.354;2023-03-05T01:31:06;5.60;99.90
16955;DHT22;8594;52.052;8.354;2023-03-05T01:33:35;5.60;99.90
16955;DHT22;8594;52.052;8.354;2023-03-05T01:36:06;5.70;99.90
16955;DHT22;8594;52.052;8.354;2023-03-05T01:38:36;5.50;99.90
16955;DHT22;8594;52.052;8.354;2023-03-05T01:41:03;5.60;99.90
16955;DHT22;8594;52.052;8.354;2023-03-05T01:43:30;5.70;99.90
16955;DHT22;8594;52.052;8.354;2023-03-05T01:46:30;5.70;99.90
16955;DHT22;8594;52.052;8.354;2023-03-05T01:49:07;5.60;99.90
16955;DHT22;8594;52.052;8.354;2023-03-05T01:51:40;5.50;99.90
16955;DHT22;8594;52.052;8.354;2023-03-05T01:54:11;5.50;99.90
16955;DHT22;8594;52.052;8.354;2023-03-05T01:56:41;5.40;99.90
16955;DHT22;8594;52.052;8.354;2023-03-05T01:59:10;5.20;99.90
16955;DHT22;8594;52.052;8.354;2023-03-05T02:01:40;5.00;99.90
16955;DHT22;8594;52.052;8.354;2023-03-05T02:04:14;5.00;99.90
16955;DHT22;8594;52.052;8.354;2023-03-05T02:06:44;5.00;99.90
16955;DHT22;8594;52.052;8.354;2023-03-05T02:09:12;5.00;99.90
16955;DHT22;8594;52.052;8.354;2023-03-05T02:11:39;5.00;99.90
16955;DHT22;8594;52.052;8.354;2023-03-05T02:14:07;5.10;99.90
16955;DHT22;8594;52.052;8.354;2023-03-05T02:16:36;5.30;99.90
16955;DHT22;8594;52.052;8.354;2023-03-05T02:19:05;5.30;99.90
16955;DHT22;8594;52.052;8.354;2023-03-05T02:21:39;5.40;99.90
16955;DHT22;8594;52.052;8.354;2023-03-05T02:24:10;5.40;99.90
16955;DHT22;8594;52.052;8.354;2023-03-05T02:26:38;5.50;99.90
16955;DHT22;8594;52.052;8.354;2023-03-05T02:29:08;5.50;99.90
16955;DHT22;8594;52.052;8.354;2023-03-05T02:31:38;5.40;99.90
16955;DHT22;8594;52.052;8.354;2023-03-05T02:34:05;5.40;99.90
16955;DHT22;8594;52.052;8.354;2023-03-05T02:36:32;5.30;99.90
16955;DHT22;8594;52.052;8.354;2023-03-05T02:39:00;5.30;99.90
16955;DHT22;8594;52.052;8.354;2023-03-05T02:41:27;5.30;99.90
16955;DHT22;8594;52.052;8.354;2023-03-05T02:43:54;5.40;99.90
16955;DHT22;8594;52.052;8.354;2023-03-05T02:46:21;5.40;99.90
16955;DHT22;8594;52.052;8.354;2023-03-05T02:48:48;5.30;99.90
16955;DHT22;8594;52.052;8.354;2023-03-05T02:51:15;5.10;99.90
16955;DHT22;8594;52.052;8.354;2023-03-05T02:53:42;5.10;99.90
16955;DHT22;8594;52.052;8.354;2023-03-05T02:56:11;4.80;99.90
16955;DHT22;8594;52.052;8.354;2023-03-05T02:58:38;5.10;99.90
16955;DHT22;8594;52.052;8.354;2023-03-05T03:01:05;5.10;99.90
16955;DHT22;8594;52.052;8.354;2023-03-05T03:03:31;5.20;99.90
16955;DHT22;8594;52.052;8.354;2023-03-05T03:05:58;5.30;99.90
16955;DHT22;8594;52.052;8.354;2023-03-05T03:08:25;5.20;99.90
16955;DHT22;8594;52.052;8.354;2023-03-05T03:10:52;5.10;99.90
16955;DHT22;8594;52.052;8.354;2023-03-05T03:13:22;5.10;99.90
16955;DHT22;8594;52.052;8.354;2023-03-05T03:15:49;5.30;99.90
16955;DHT22;8594;52.052;8.354;2023-03-05T03:18:16;5.30;99.90
16955;DHT22;8594;52.052;8.354;2023-03-05T03:20:43;5.30;99.90
16955;DHT22;8594;52.052;8.354;2023-03-05T03:23:10;5.10;99.90
16955;DHT22;8594;52.052;8.354;2023-03-05T03:25:36;5.20;99.90
16955;DHT22;8594;52.052;8.354;2023-03-05T03:28:03;5.20;99.90
16955;DHT22;8594;52.052;8.354;2023-03-05T03:30:31;5.10;99.90
16955;DHT22;8594;52.052;8.354;2023-03-05T03:32:58;5.00;99.90
16955;DHT22;8594;52.052;8.354;2023-03-05T03:35:25;4.90;99.90
16955;DHT22;8594;52.052;8.354;2023-03-05T03:37:52;4.90;99.90
16955;DHT22;8594;52.052;8.354;2023-03-05T03:40:19;4.80;99.90
16955;DHT22;8594;52.052;8.354;2023-03-05T03:42:46;4.90;99.90
16955;DHT22;8594;52.052;8.354;2023-03-05T03:45:13;4.90;99.90
16955;DHT22;8594;52.052;8.354;2023-03-05T03:47:42;5.10;99.90
16955;DHT22;8594;52.052;8.354;2023-03-05T03:50:10;5.00;99.90
16955;DHT22;8594;52.052;8.354;2023-03-05T03:52:37;4.90;99.90
16955;DHT22;8594;52.052;8.354;2023-03-05T03:55:04;4.80;99.90
16955;DHT22;8594;52.052;8.354;2023-03-05T03:57:32;4.90;99.90
16955;DHT22;8594;52.052;8.354;2023-03-05T03:59:59;4.90;99.90
16955;DHT22;8594;52.052;8.354;2023-03-05T04:02:26;5.00;99.90
16955;DHT22;8594;52.052;8.354;2023-03-05T04:04:54;5.20;99.90
16955;DHT22;8594;52.052;8.354;2023-03-05T04:07:21;4.90;99.90
16955;DHT22;8594;52.052;8.354;2023-03-05T04:09:51;4.80;99.90
16955;DHT22;8594;52.052;8.354;2023-03-05T04:12:17;5.00;99.90
16955;DHT22;8594;52.052;8.354;2023-03-05T04:14:44;4.90;99.90
16955;DHT22;8594;52.052;8.354;2023-03-05T04:17:12;5.10;99.90
16955;DHT22;8594;52.052;8.354;2023-03-05T04:19:41;5.20;99.90
16955;DHT22;8594;52.052;8.354;2023-03-05T04:22:11;5.20;99.90
16955;DHT22;8594;52.052;8.354;2023-03-05T04:24:39;5.10;99.90
16955;DHT22;8594;52.052;8.354;2023-03-05T04:27:07;5.00;99.90
16955;DHT22;8594;52.052;8.354;2023-03-05T04:29:34;5.00;99.90
16955;DHT22;8594;52.052;8.354;2023-03-05T04:32:02;5.00;99.90
16955;DHT22;8594;52.052;8.354;2023-03-05T04:34:29;5.00;99.90
16955;DHT22;8594;52.052;8.354;2023-03-05T04:36:57;4.90;99.90
16955;DHT22;8594;52.052;8.354;2023-03-05T04:39:25;5.00;99.90
16955;DHT22;8594;52.052;8.354;2023-03-05T04:41:52;5.00;99.90
16955;DHT22;8594;52.052;8.354;2023-03-05T04:44:19;5.00;99.90
16955;DHT22;8594;52.052;8.354;2023-03-05T04:46:47;5.10;99.90
16955;DHT22;8594;52.052;8.354;2023-03-05T04:49:14;5.10;99.90
16955;DHT22;8594;52.052;8.354;2023-03-05T04:51:41;5.20;99.90
16955;DHT22;8594;52.052;8.354;2023-03-05T04:54:08;5.30;99.90
16955;DHT22;8594;52.052;8.354;2023-03-05T04:56:36;5.10;99.90
16955;DHT22;8594;52.052;8.354;2023-03-05T04:59:03;5.00;99.90
16955;DHT22;8594;52.052;8.354;2023-03-05T05:01:29;5.00;99.90
16955;DHT22;8594;52.052;8.354;2023-03-05T05:03:57;5.10;99.90
16955;DHT22;8594;52.052;8.354;2023-03-05T05:06:24;5.10;99.90
16955;DHT22;8594;52.052;8.354;2023-03-05T05:08:50;5.10;99.90
16955;DHT22;8594;52.052;8.354;2023-03-05T05:11:17;5.20;99.90
16955;DHT22;8594;52.052;8.354;2023-03-05T05:13:45;5.20;99.90
16955;DHT22;8594;52.052;8.354;2023-03-05T05:16:12;4.90;99.90
16955;DHT22;8594;52.052;8.354;2023-03-05T05:18:39;4.80;99.90
16955;DHT22;8594;52.052;8.354;2023-03-05T05:21:07;4.80;99.90
16955;DHT22;8594;52.052;8.354;2023-03-05T05:23:35;4.90;99.90
16955;DHT22;8594;52.052;8.354;2023-03-05T05:26:03;4.90;99.90
16955;DHT22;8594;52.052;8.354;2023-03-05T05:28:31;4.70;99.90
16955;DHT22;8594;52.052;8.354;2023-03-05T05:31:00;4.90;99.90
16955;DHT22;8594;52.052;8.354;2023-03-05T05:33:31;5.00;99.90
16955;DHT22;8594;52.052;8.354;2023-03-05T05:35:58;4.90;99.90
16955;DHT22;8594;52.052;8.354;2023-03-05T05:38:25;4.80;99.90
16955;DHT22;8594;52.052;8.354;2023-03-05T05:40:52;4.80;99.90
16955;DHT22;8594;52.052;8.354;2023-03-05T05:43:18;4.80;99.90
16955;DHT22;8594;52.052;8.354;2023-03-05T05:45:45;4.60;99.90
16955;DHT22;8594;52.052;8.354;2023-03-05T05:48:13;4.50;99.90
16955;DHT22;8594;52.052;8.354;2023-03-05T05:50:40;4.50;99.90
16955;DHT22;8594;52.052;8.354;2023-03-05T05:53:07;4.60;99.90
16955;DHT22;8594;52.052;8.354;2023-03-05T05:55:34;4.70;99.90
16955;DHT22;8594;52.052;8.354;2023-03-05T05:58:00;4.60;99.90
16955;DHT22;8594;52.052;8.354;2023-03-05T06:00:27;4.80;99.90
16955;DHT22;8594;52.052;8.354;2023-03-05T06:02:54;4.70;99.90
16955;DHT22;8594;52.052;8.354;2023-03-05T06:05:23;4.70;99.90
16955;DHT22;8594;52.052;8.354;2023-03-05T06:07:50;4.60;99.90
16955;DHT22;8594;52.052;8.354;2023-03-05T06:10:16;4.60;99.90
16955;DHT22;8594;52.052;8.354;2023-03-05T06:12:43;4.60;99.90
16955;DHT22;8594;52.052;8.354;2023-03-05T06:15:10;4.60;99.90
16955;DHT22;8594;52.052;8.354;2023-03-05T06:17:37;4.70;99.90
16955;DHT22;8594;52.052;8.354;2023-03-05T06:20:05;4.70;99.90
16955;DHT22;8594;52.052;8.354;2023-03-05T06:22:36;4.70;99.90
16955;DHT22;8594;52.052;8.354;2023-03-05T06:25:05;4.70;99.90
16955;DHT22;8594;52.052;8.354;2023-03-05T06:27:33;4.60;99.90
16955;DHT22;8594;52.052;8.354;2023-03-05T06:30:01;4.60;99.90
16955;DHT22;8594;52.052;8.354;2023-03-05T06:32:28;4.60;99.90
16955;DHT22;8594;52.052;8.354;2023-03-05T06:34:55;4.70;99.90
16955;DHT22;8594;52.052;8.354;2023-03-05T06:37:22;4.80;99.90
16955;DHT22;8594;52.052;8.354;2023-03-05T06:39:50;4.70;99.90
16955;DHT22;8594;52.052;8.354;2023-03-05T06:42:17;4.60;99.90
16955;DHT22;8594;52.052;8.354;2023-03-05T06:44:44;4.60;99.90
16955;DHT22;8594;52.052;8.354;2023-03-05T06:47:11;4.70;99.90
16955;DHT22;8594;52.052;8.354;2023-03-05T06:49:39;4.60;99.90
16955;DHT22;8594;52.052;8.354;2023-03-05T06:52:06;4.60;99.90
16955;DHT22;8594;52.052;8.354;2023-03-05T06:54:35;4.70;99.90
16955;DHT22;8594;52.052;8.354;2023-03-05T06:57:03;4.80;99.90
16955;DHT22;8594;52.052;8.354;2023-03-05T06:59:30;4.70;99.90
16955;DHT22;8594;52.052;8.354;2023-03-05T07:01:57;4.70;99.90
16955;DHT22;8594;52.052;8.354;2023-03-05T07:04:23;4.60;99.90
16955;DHT22;8594;52.052;8.354;2023-03-05T07:06:50;4.60;99.90
16955;DHT22;8594;52.052;8.354;2023-03-05T07:09:17;4.60;99.90
16955;DHT22;8594;52.052;8.354;2023-03-05T07:11:45;4.70;99.90
16955;DHT22;8594;52.052;8.354;2023-03-05T07:14:13;4.70;99.90
16955;DHT22;8594;52.052;8.354;2023-03-05T07:16:40;4.60;99.90
16955;DHT22;8594;52.052;8.354;2023-03-05T07:19:07;4.60;99.90
16955;DHT22;8594;52.052;8.354;2023-03-05T07:21:35;4.70;99.90
16955;DHT22;8594;52.052;8.354;2023-03-05T07:24:03;4.90;99.90
16955;DHT22;8594;52.052;8.354;2023-03-05T07:26:31;4.60;99.90
16955;DHT22;8594;52.052;8.354;2023-03-05T07:28:59;4.50;99.90
16955;DHT22;8594;52.052;8.354;2023-03-05T07:31:28;4.60;99.90
16955;DHT22;8594;52.052;8.354;2023-03-05T07:33:57;4.40;99.90
16955;DHT22;8594;52.052;8.354;2023-03-05T07:36:25;4.60;99.90
16955;DHT22;8594;52.052;8.354;2023-03-05T07:38:53;4.70;99.90
16955;DHT22;8594;52.052;8.354;2023-03-05T07:41:20;4.80;99.90
16955;DHT22;8594;52.052;8.354;2023-03-05T07:43:49;4.90;99.90
16955;DHT22;8594;52.052;8.354;2023-03-05T07:46:19;5.00;99.90
16955;DHT22;8594;52.052;8.354;2023-03-05T07:48:49;4.90;99.90
16955;DHT22;8594;52.052;8.354;2023-03-05T07:51:17;4.70;99.90
16955;DHT22;8594;52.052;8.354;2023-03-05T07:53:46;4.80;99.90
16955;DHT22;8594;52.052;8.354;2023-03-05T07:56:20;4.90;99.90
16955;DHT22;8594;52.052;8.354;2023-03-05T07:58:48;5.00;99.90
16955;DHT22;8594;52.052;8.354;2023-03-05T08:01:15;4.90;99.90
16955;DHT22;8594;52.052;8.354;2023-03-05T08:03:43;4.90;99.90
16955;DHT22;8594;52.052;8.354;2023-03-05T08:06:12;4.90;99.90
16955;DHT22;8594;52.052;8.354;2023-03-05T08:08:38;4.70;99.90
16955;DHT22;8594;52.052;8.354;2023-03-05T08:11:07;4.90;99.90
16955;DHT22;8594;52.052;8.354;2023-03-05T08:13:36;4.90;99.90
16955;DHT22;8594;52.052;8.354;2023-03-05T08:16:04;5.00;99.90
16955;DHT22;8594;52.052;8.354;2023-03-05T08:18:32;5.20;99.90
16955;DHT22;8594;52.052;8.354;2023-03-05T08:20:59;5.10;99.90
16955;DHT22;8594;52.052;8.354;2023-03-05T08:23:28;5.20;99.90
16955;DHT22;8594;52.052;8.354;2023-03-05T08:25:56;5.40;99.90
16955;DHT22;8594;52.052;8.354;2023-03-05T08:28:23;5.30;99.90
16955;DHT22;8594;52.052;8.354;2023-03-05T08:30:50;5.30;99.90
16955;DHT22;8594;52.052;8.354;2023-03-05T08:33:17;5.30;99.90
16955;DHT22;8594;52.052;8.354;2023-03-05T08:35:44;5.50;99.90
16955;DHT22;8594;52.052;8.354;2023-03-05T08:38:11;5.50;99.90
16955;DHT22;8594;52.052;8.354;2023-03-05T08:40:39;5.40;99.90
16955;DHT22;8594;52.052;8.354;2023-03-05T08:43:08;5.50;99.90
16955;DHT22;8594;52.052;8.354;2023-03-05T08:45:34;5.50;99.90
16955;DHT22;8594;52.052;8.354;2023-03-05T08:48:01;5.60;99.90
16955;DHT22;8594;52.052;8.354;2023-03-05T08:50:28;5.60;99.90
16955;DHT22;8594;52.052;8.354;2023-03-05T08:52:55;5.70;99.90
16955;DHT22;8594;52.052;8.354;2023-03-05T08:55:22;5.70;99.90
16955;DHT22;8594;52.052;8.354;2023-03-05T08:57:50;5.50;99.90
16955;DHT22;8594;52.052;8.354;2023-03-05T09:00:18;5.50;99.90
16955;DHT22;8594;52.052;8.354;2023-03-05T09:02:45;5.50;99.90
16955;DHT22;8594;52.052;8.354;2023-03-05T09:05:12;5.50;99.90
16955;DHT22;8594;52.052;8.354;2023-03-05T09:07:40;5.60;99.90
16955;DHT22;8594;52.052;8.354;2023-03-05T09:10:08;5.50;99.90
16955;DHT22;8594;52.052;8.354;2023-03-05T09:12:38;5.60;99.90
16955;DHT22;8594;52.052;8.354;2023-03-05T09:15:07;5.50;99.90
16955;DHT22;8594;52.052;8.354;2023-03-05T09:17:37;5.30;99.90
16955;DHT22;8594;52.052;8.354;2023-03-05T09:20:10;5.40;99.90
16955;DHT22;8594;52.052;8.354;2023-03-05T09:22:43;5.50;99.90
16955;DHT22;8594;52.052;8.354;2023-03-05T09:25:11;5.70;99.90
16955;DHT22;8594;52.052;8.354;2023-03-05T09:27:38;5.60;99.90
16955;DHT22;8594;52.052;8.354;2023-03-05T09:30:07;5.70;99.90
16955;DHT22;8594;52.052;8.354;2023-03-05T09:32:35;6.00;99.90
16955;DHT22;8594;52.052;8.354;2023-03-05T09:35:02;5.90;99.90
16955;DHT22;8594;52.052;8.354;2023-03-05T09:37:29;5.90;99.90
16955;DHT22;8594;52.052;8.354;2023-03-05T09:39:57;5.90;99.90
16955;DHT22;8594;52.052;8.354;2023-03-05T09:42:44;6.10;99.90
16955;DHT22;8594;52.052;8.354;2023-03-05T09:45:31;6.20;99.90
16955;DHT22;8594;52.052;8.354;2023-03-05T09:48:12;6.30;99.90
16955;DHT22;8594;52.052;8.354;2023-03-05T09:50:44;6.40;99.90
16955;DHT22;8594;52.052;8.354;2023-03-05T09:53:22;6.40;99.90
16955;DHT22;8594;52.052;8.354;2023-03-05T09:55:59;6.40;99.90
16955;DHT22;8594;52.052;8.354;2023-03-05T09:58:33;6.60;99.90
16955;DHT22;8594;52.052;8.354;2023-03-05T10:01:07;6.60;99.90
16955;DHT22;8594;52.052;8.354;2023-03-05T10:03:47;6.60;99.90
16955;DHT22;8594;52.052;8.354;2023-03-05T10:06:22;6.70;99.90
16955;DHT22;8594;52.052;8.354;2023-03-05T10:08:54;6.70;99.90
16955;DHT22;8594;52.052;8.354;2023-03-05T10:11:37;6.50;99.90
16955;DHT22;8594;52.052;8.354;2023-03-05T10:14:13;6.50;99.90
16955;DHT22;8594;52.052;8.354;2023-03-05T10:20:35;6.10;99.90
16955;DHT22;8594;52.052;8.354;2023-03-05T10:23:22;6.20;99.90
16955;DHT22;8594;52.052;8.354;2023-03-05T10:29:00;6.30;99.90
16955;DHT22;8594;52.052;8.354;2023-03-05T10:31:53;6.40;99.90
16955;DHT22;8594;52.052;8.354;2023-03-05T10:34:43;6.40;99.90
16955;DHT22;8594;52.052;8.354;2023-03-05T10:37:47;6.30;99.90
16955;DHT22;8594;52.052;8.354;2023-03-05T10:40:31;6.10;99.90
16955;DHT22;8594;52.052;8.354;2023-03-05T10:43:14;6.30;99.90
16955;DHT22;8594;52.052;8.354;2023-03-05T10:45:51;6.40;99.90
16955;DHT22;8594;52.052;8.354;2023-03-05T10:48:27;6.60;99.90
16955;DHT22;8594;52.052;8.354;2023-03-05T10:51:04;6.60;99.90
16955;DHT22;8594;52.052;8.354;2023-03-05T10:53:47;6.60;99.90
16955;DHT22;8594;52.052;8.354;2023-03-05T10:56:21;6.80;99.90
16955;DHT22;8594;52.052;8.354;2023-03-05T10:58:50;6.80;99.90
16955;DHT22;8594;52.052;8.354;2023-03-05T11:01:21;6.60;99.90
16955;DHT22;8594;52.052;8.354;2023-03-05T11:03:53;6.30;99.90
16955;DHT22;8594;52.052;8.354;2023-03-05T11:06:34;6.40;99.90
16955;DHT22;8594;52.052;8.354;2023-03-05T11:09:19;6.60;99.90
16955;DHT22;8594;52.052;8.354;2023-03-05T11:12:09;6.70;99.90
16955;DHT22;8594;52.052;8.354;2023-03-05T11:14:40;6.80;99.90
16955;DHT22;8594;52.052;8.354;2023-03-05T11:17:30;6.70;99.90
16955;DHT22;8594;52.052;8.354;2023-03-05T11:20:28;6.60;99.90
16955;DHT22;8594;52.052;8.354;2023-03-05T11:23:12;6.90;99.90
16955;DHT22;8594;52.052;8.354;2023-03-05T11:25:51;7.50;99.90
16955;DHT22;8594;52.052;8.354;2023-03-05T11:28:23;7.90;99.90
16955;DHT22;8594;52.052;8.354;2023-03-05T11:31:03;7.90;99.90
16955;DHT22;8594;52.052;8.354;2023-03-05T11:33:33;7.90;99.90
16955;DHT22;8594;52.052;8.354;2023-03-05T11:36:29;7.70;99.90
16955;DHT22;8594;52.052;8.354;2023-03-05T11:39:08;7.80;99.90
16955;DHT22;8594;52.052;8.354;2023-03-05T11:41:39;7.60;99.90
16955;DHT22;8594;52.052;8.354;2023-03-05T11:44:11;7.70;99.90
16955;DHT22;8594;52.052;8.354;2023-03-05T11:46:43;7.70;99.90
16955;DHT22;8594;52.052;8.354;2023-03-05T11:49:15;8.30;99.90
16955;DHT22;8594;52.052;8.354;2023-03-05T11:51:50;8.90;99.90
16955;DHT22;8594;52.052;8.354;2023-03-05T11:54:29;9.10;99.90
16955;DHT22;8594;52.052;8.354;2023-03-05T11:57:02;9.10;99.90
16955;DHT22;8594;52.052;8.354;2023-03-05T11:59:34;9.20;99.90
16955;DHT22;8594;52.052;8.354;2023-03-05T12:02:15;9.20;99.90
16955;DHT22;8594;52.052;8.354;2023-03-05T12:04:44;9.00;99.90
16955;DHT22;8594;52.052;8.354;2023-03-05T12:07:13;8.60;99.90
16955;DHT22;8594;52.052;8.354;2023-03-05T12:09:45;8.60;99.90
16955;DHT22;8594;52.052;8.354;2023-03-05T12:12:27;8.30;99.90
16955;DHT22;8594;52.052;8.354;2023-03-05T12:15:13;8.40;99.90
16955;DHT22;8594;52.052;8.354;2023-03-05T12:17:57;8.20;99.90
16955;DHT22;8594;52.052;8.354;2023-03-05T12:20:39;8.00;99.90
16955;DHT22;8594;52.052;8.354;2023-03-05T12:23:14;7.50;99.90
16955;DHT22;8594;52.052;8.354;2023-03-05T12:25:46;7.50;99.90
16955;DHT22;8594;52.052;8.354;2023-03-05T12:28:16;7.60;99.90
16955;DHT22;8594;52.052;8.354;2023-03-05T12:31:04;8.00;99.90
16955;DHT22;8594;52.052;8.354;2023-03-05T12:33:34;7.90;99.90
16955;DHT22;8594;52.052;8.354;2023-03-05T12:36:33;8.30;99.90
16955;DHT22;8594;52.052;8.354;2023-03-05T12:42:43;9.10;99.90
16955;DHT22;8594;52.052;8.354;2023-03-05T12:45:34;9.30;99.90
16955;DHT22;8594;52.052;8.354;2023-03-05T12:51:13;9.00;99.90
16955;DHT22;8594;52.052;8.354;2023-03-05T12:53:54;8.90;99.90
16955;DHT22;8594;52.052;8.354;2023-03-05T12:56:25;8.80;99.90
16955;DHT22;8594;52.052;8.354;2023-03-05T12:58:59;8.60;99.90
16955;DHT22;8594;52.052;8.354;2023-03-05T13:01:39;8.70;99.90
16955;DHT22;8594;52.052;8.354;2023-03-05T13:04:15;8.80;99.90
16955;DHT22;8594;52.052;8.354;2023-03-05T13:06:45;8.90;99.90
16955;DHT22;8594;52.052;8.354;2023-03-05T13:09:24;8.80;99.90
16955;DHT22;8594;52.052;8.354;2023-03-05T13:11:54;9.00;99.90
16955;DHT22;8594;52.052;8.354;2023-03-05T13:14:29;9.20;99.90
16955;DHT22;8594;52.052;8.354;2023-03-05T13:16:58;9.10;99.90
16955;DHT22;8594;52.052;8.354;2023-03-05T13:19:26;9.40;99.90
16955;DHT22;8594;52.052;8.354;2023-03-05T13:22:00;9.60;99.90
16955;DHT22;8594;52.052;8.354;2023-03-05T13:24:29;9.50;99.90
16955;DHT22;8594;52.052;8.354;2023-03-05T13:26:56;9.50;99.90
16955;DHT22;8594;52.052;8.354;2023-03-05T13:29:27;9.70;99.90
16955;DHT22;8594;52.052;8.354;2023-03-05T13:31:57;9.70;99.90
16955;DHT22;8594;52.052;8.354;2023-03-05T13:34:26;9.70;99.90
16955;DHT22;8594;52.052;8.354;2023-03-05T13:36:58;9.60;99.90
16955;DHT22;8594;52.052;8.354;2023-03-05T13:39:28;9.70;99.90
16955;DHT22;8594;52.052;8.354;2023-03-05T13:42:00;9.70;99.90
16955;DHT22;8594;52.052;8.354;2023-03-05T13:44:32;9.70;99.90
16955;DHT22;8594;52.052;8.354;2023-03-05T13:47:07;9.50;99.90
16955;DHT22;8594;52.052;8.354;2023-03-05T13:49:39;9.80;99.90
16955;DHT22;8594;52.052;8.354;2023-03-05T13:52:06;9.40;99.90
16955;DHT22;8594;52.052;8.354;2023-03-05T13:54:33;9.40;99.90
16955;DHT22;8594;52.052;8.354;2023-03-05T13:57:02;9.50;99.90
16955;DHT22;8594;52.052;8.354;2023-03-05T13:59:33;9.50;99.90
16955;DHT22;8594;52.052;8.354;2023-03-05T14:02:16;9.50;99.90
16955;DHT22;8594;52.052;8.354;2023-03-05T14:04:45;9.40;99.90
16955;DHT22;8594;52.052;8.354;2023-03-05T14:07:28;9.10;99.90
16955;DHT22;8594;52.052;8.354;2023-03-05T14:09:58;9.20;99.90
16955;DHT22;8594;52.052;8.354;2023-03-05T14:12:29;9.10;99.90
16955;DHT22;8594;52.052;8.354;2023-03-05T14:15:03;9.00;99.90
16955;DHT22;8594;52.052;8.354;2023-03-05T14:17:44;8.90;99.90
16955;DHT22;8594;52.052;8.354;2023-03-05T14:20:20;8.70;99.90
16955;DHT22;8594;52.052;8.354;2023-03-05T14:22:51;8.80;99.90
16955;DHT22;8594;52.052;8.354;2023-03-05T14:25:28;8.80;99.90
16955;DHT22;8594;52.052;8.354;2023-03-05T14:28:02;8.50;99.90
16955;DHT22;8594;52.052;8.354;2023-03-05T14:30:32;8.50;99.90
16955;DHT22;8594;52.052;8.354;2023-03-05T14:33:01;8.20;99.90
16955;DHT22;8594;52.052;8.354;2023-03-05T14:35:29;8.00;99.90
16955;DHT22;8594;52.052;8.354;2023-03-05T14:37:57;7.90;99.90
16955;DHT22;8594;52.052;8.354;2023-03-05T14:40:30;7.70;99.90
16955;DHT22;8594;52.052;8.354;2023-03-05T14:42:59;7.90;99.90
16955;DHT22;8594;52.052;8.354;2023-03-05T14:45:28;8.00;99.90
16955;DHT22;8594;52.052;8.354;2023-03-05T14:47:59;8.20;99.90
16955;DHT22;8594;52.052;8.354;2023-03-05T14:50:31;8.30;99.90
16955;DHT22;8594;52.052;8.354;2023-03-05T14:53:03;8.20;99.90
16955;DHT22;8594;52.052;8.354;2023-03-05T14:55:34;8.30;99.90
16955;DHT22;8594;52.052;8.354;2023-03-05T14:58:09;8.20;99.90
16955;DHT22;8594;52.052;8.354;2023-03-05T15:00:37;8.10;99.90
16955;DHT22;8594;52.052;8.354;2023-03-05T15:03:08;8.10;99.90
16955;DHT22;8594;52.052;8.354;2023-03-05T15:05:36;8.10;99.90
16955;DHT22;8594;52.052;8.354;2023-03-05T15:08:04;8.00;99.90
16955;DHT22;8594;52.052;8.354;2023-03-05T15:10:32;8.10;99.90
16955;DHT22;8594;52.052;8.354;2023-03-05T15:12:59;8.20;99.90
16955;DHT22;8594;52.052;8.354;2023-03-05T15:15:26;8.10;99.90
16955;DHT22;8594;52.052;8.354;2023-03-05T15:17:53;8.00;99.90
16955;DHT22;8594;52.052;8.354;2023-03-05T15:20:23;8.20;99.90
16955;DHT22;8594;52.052;8.354;2023-03-05T15:22:52;8.30;99.90
16955;DHT22;8594;52.052;8.354;2023-03-05T15:25:20;8.00;99.90
16955;DHT22;8594;52.052;8.354;2023-03-05T15:27:51;8.20;99.90
16955;DHT22;8594;52.052;8.354;2023-03-05T15:30:22;8.10;99.90
16955;DHT22;8594;52.052;8.354;2023-03-05T15:32:52;7.90;99.90
16955;DHT22;8594;52.052;8.354;2023-03-05T15:35:23;8.00;99.90
16955;DHT22;8594;52.052;8.354;2023-03-05T15:37:51;8.00;99.90
16955;DHT22;8594;52.052;8.354;2023-03-05T15:40:18;8.10;99.90
16955;DHT22;8594;52.052;8.354;2023-03-05T15:42:46;8.20;99.90
16955;DHT22;8594;52.052;8.354;2023-03-05T15:45:14;8.20;99.90
16955;DHT22;8594;52.052;8.354;2023-03-05T15:47:41;8.10;99.90
16955;DHT22;8594;52.052;8.354;2023-03-05T15:50:09;8.10;99.90
16955;DHT22;8594;52.052;8.354;2023-03-05T15:52:38;8.20;99.90
16955;DHT22;8594;52.052;8.354;2023-03-05T15:55:06;8.30;99.90
16955;DHT22;8594;52.052;8.354;2023-03-05T15:57:35;8.20;99.90
16955;DHT22;8594;52.052;8.354;2023-03-05T16:00:04;8.10;99.90
16955;DHT22;8594;52.052;8.354;2023-03-05T16:02:32;8.00;99.90
16955;DHT22;8594;52.052;8.354;2023-03-05T16:04:59;7.90;99.90
16955;DHT22;8594;52.052;8.354;2023-03-05T16:07:27;7.90;99.90
16955;DHT22;8594;52.052;8.354;2023-03-05T16:09:55;7.80;99.90
16955;DHT22;8594;52.052;8.354;2023-03-05T16:12:26;7.80;99.90
16955;DHT22;8594;52.052;8.354;2023-03-05T16:14:56;7.60;99.90
16955;DHT22;8594;52.052;8.354;2023-03-05T16:17:23;7.60;99.90
16955;DHT22;8594;52.052;8.354;2023-03-05T16:19:52;7.60;99.90
16955;DHT22;8594;52.052;8.354;2023-03-05T16:22:21;7.70;99.90
16955;DHT22;8594;52.052;8.354;2023-03-05T16:24:48;7.70;99.90
16955;DHT22;8594;52.052;8.354;2023-03-05T16:27:16;7.80;99.90
16955;DHT22;8594;52.052;8.354;2023-03-05T16:29:43;7.70;99.90
16955;DHT22;8594;52.052;8.354;2023-03-05T16:32:10;7.70;99.90
16955;DHT22;8594;52.052;8.354;2023-03-05T16:34:37;7.50;99.90